Rossburn, Canada
Current Conditions -  °F | °C
As of 7:00 PM on Friday 31 Oct 2014 (Local Time) from CYDN Reporting Station
Overcast Overcast  
Wind Chill: 30°   Ceiling: 13000
Heat Index: 36°   Visibility: 9mi
Dew Point: 21°   Wind: 7mph
Humidity: 56%   Direction: 150°SSE
Pressure: 30.14"   Gusts: NA
Location:  50.67°N, 100.82°W
Report Text: CYDN 010000Z AUTO 15006KT 110V180 9SM OVC130 02/M06 A3014 RMK SLP225
Loading
Personal Weather Stations






























Interactive Weather Map
Tropical Storm Tracking
New forecast layout! Learn more

10-Day Weather Forecast

Advertisements
Track Severe Weather on mobile